Willow Grove, Texas
Current Conditions -  °F | °C
As of 2:35 PM on Friday 28 Nov 2014 (Local Time) from KTPL Reporting Station
Clear Clear  
Wind Chill: 72°   Ceiling: Unl
Heat Index: 72°   Visibility: 10mi
Dew Point: 48°   Wind: 20mph
Humidity: 43%   Direction: 190°S
Pressure: 30.1"   Gusts: 23mph
Location:  31.2688°N, 97.3985°W
Report Text: KTPL 282035Z AUTO 19017G20KT 10SM CLR 22/09 A3010 RMK AO1
Loading
Personal Weather Stations






























Interactive Weather Map New forecast layout! Learn more

10-Day Weather Forecast

Advertisements
Track Severe Weather on mobile